sensor_id;sensor_type;location;lat;lon;timestamp;temperature;humidity
5392;DHT22;2719;53.624;9.786;2022-11-11T00:01:58;13.00;99.90
5392;DHT22;2719;53.624;9.786;2022-11-11T00:04:24;13.00;99.90
5392;DHT22;2719;53.624;9.786;2022-11-11T00:06:52;13.00;99.90
5392;DHT22;2719;53.624;9.786;2022-11-11T00:09:19;12.90;99.90
5392;DHT22;2719;53.624;9.786;2022-11-11T00:11:46;12.90;99.90
5392;DHT22;2719;53.624;9.786;2022-11-11T00:14:12;12.90;99.90
5392;DHT22;2719;53.624;9.786;2022-11-11T00:16:40;12.90;99.90
5392;DHT22;2719;53.624;9.786;2022-11-11T00:19:21;12.90;99.90
5392;DHT22;2719;53.624;9.786;2022-11-11T00:22:09;12.90;99.90
5392;DHT22;2719;53.624;9.786;2022-11-11T00:25:02;12.90;99.90
5392;DHT22;2719;53.624;9.786;2022-11-11T00:27:31;12.90;99.90
5392;DHT22;2719;53.624;9.786;2022-11-11T00:29:58;12.90;99.90
5392;DHT22;2719;53.624;9.786;2022-11-11T00:32:26;12.80;99.90
5392;DHT22;2719;53.624;9.786;2022-11-11T00:34:56;12.80;99.90
5392;DHT22;2719;53.624;9.786;2022-11-11T00:37:42;12.90;99.90
5392;DHT22;2719;53.624;9.786;2022-11-11T00:40:10;12.90;99.90
5392;DHT22;2719;53.624;9.786;2022-11-11T00:42:37;12.90;99.90
5392;DHT22;2719;53.624;9.786;2022-11-11T00:45:05;12.90;99.90
5392;DHT22;2719;53.624;9.786;2022-11-11T00:47:33;12.90;99.90
5392;DHT22;2719;53.624;9.786;2022-11-11T00:50:19;12.90;99.90
5392;DHT22;2719;53.624;9.786;2022-11-11T00:53:08;12.90;99.90
5392;DHT22;2719;53.624;9.786;2022-11-11T00:55:35;12.90;99.90
5392;DHT22;2719;53.624;9.786;2022-11-11T00:58:02;12.90;99.90
5392;DHT22;2719;53.624;9.786;2022-11-11T01:00:28;12.90;99.90
5392;DHT22;2719;53.624;9.786;2022-11-11T01:02:56;12.90;99.90
5392;DHT22;2719;53.624;9.786;2022-11-11T01:05:23;12.90;99.90
5392;DHT22;2719;53.624;9.786;2022-11-11T01:07:50;12.90;99.90
5392;DHT22;2719;53.624;9.786;2022-11-11T01:10:17;12.90;99.90
5392;DHT22;2719;53.624;9.786;2022-11-11T01:13:03;12.90;99.90
5392;DHT22;2719;53.624;9.786;2022-11-11T01:15:39;12.90;99.90
5392;DHT22;2719;53.624;9.786;2022-11-11T01:18:07;12.80;99.90
5392;DHT22;2719;53.624;9.786;2022-11-11T01:20:34;12.90;99.90
5392;DHT22;2719;53.624;9.786;2022-11-11T01:23:02;12.90;99.90
5392;DHT22;2719;53.624;9.786;2022-11-11T01:25:31;13.00;99.90
5392;DHT22;2719;53.624;9.786;2022-11-11T01:27:58;12.90;99.90
5392;DHT22;2719;53.624;9.786;2022-11-11T01:30:24;12.90;99.90
5392;DHT22;2719;53.624;9.786;2022-11-11T01:32:51;12.90;99.90
5392;DHT22;2719;53.624;9.786;2022-11-11T01:35:19;12.90;99.90
5392;DHT22;2719;53.624;9.786;2022-11-11T01:37:45;12.90;99.90
5392;DHT22;2719;53.624;9.786;2022-11-11T01:40:12;12.90;99.90
5392;DHT22;2719;53.624;9.786;2022-11-11T01:42:46;12.90;99.90
5392;DHT22;2719;53.624;9.786;2022-11-11T01:45:45;12.90;99.90
5392;DHT22;2719;53.624;9.786;2022-11-11T01:48:17;12.90;99.90
5392;DHT22;2719;53.624;9.786;2022-11-11T01:51:06;12.80;99.90
5392;DHT22;2719;53.624;9.786;2022-11-11T01:53:38;12.90;99.90
5392;DHT22;2719;53.624;9.786;2022-11-11T01:56:05;12.90;99.90
5392;DHT22;2719;53.624;9.786;2022-11-11T01:58:34;12.90;99.90
5392;DHT22;2719;53.624;9.786;2022-11-11T02:01:01;12.90;99.90
5392;DHT22;2719;53.624;9.786;2022-11-11T02:03:30;13.00;99.90
5392;DHT22;2719;53.624;9.786;2022-11-11T02:05:58;13.00;99.90
5392;DHT22;2719;53.624;9.786;2022-11-11T02:08:30;13.00;99.90
5392;DHT22;2719;53.624;9.786;2022-11-11T02:11:01;12.90;99.90
5392;DHT22;2719;53.624;9.786;2022-11-11T02:13:28;12.90;99.90
5392;DHT22;2719;53.624;9.786;2022-11-11T02:16:13;12.90;99.90
5392;DHT22;2719;53.624;9.786;2022-11-11T02:18:40;12.90;99.90
5392;DHT22;2719;53.624;9.786;2022-11-11T02:21:09;12.90;99.90
5392;DHT22;2719;53.624;9.786;2022-11-11T02:23:43;13.00;99.90
5392;DHT22;2719;53.624;9.786;2022-11-11T02:26:15;13.00;99.90
5392;DHT22;2719;53.624;9.786;2022-11-11T02:28:43;12.90;99.90
5392;DHT22;2719;53.624;9.786;2022-11-11T02:31:10;12.90;99.90
5392;DHT22;2719;53.624;9.786;2022-11-11T02:33:37;12.90;99.90
5392;DHT22;2719;53.624;9.786;2022-11-11T02:36:05;13.00;99.90
5392;DHT22;2719;53.624;9.786;2022-11-11T02:38:35;12.90;99.90
5392;DHT22;2719;53.624;9.786;2022-11-11T02:41:02;12.90;99.90
5392;DHT22;2719;53.624;9.786;2022-11-11T02:43:47;12.80;99.90
5392;DHT22;2719;53.624;9.786;2022-11-11T02:46:14;12.80;99.90
5392;DHT22;2719;53.624;9.786;2022-11-11T02:48:41;12.80;99.90
5392;DHT22;2719;53.624;9.786;2022-11-11T02:51:07;12.70;99.90
5392;DHT22;2719;53.624;9.786;2022-11-11T02:53:34;12.70;99.90
5392;DHT22;2719;53.624;9.786;2022-11-11T02:56:01;12.70;99.90
5392;DHT22;2719;53.624;9.786;2022-11-11T02:58:28;12.60;99.90
5392;DHT22;2719;53.624;9.786;2022-11-11T03:00:56;12.60;99.90
5392;DHT22;2719;53.624;9.786;2022-11-11T03:03:22;12.50;99.90
5392;DHT22;2719;53.624;9.786;2022-11-11T03:05:49;12.50;99.90
5392;DHT22;2719;53.624;9.786;2022-11-11T03:08:17;12.50;99.90
5392;DHT22;2719;53.624;9.786;2022-11-11T03:10:43;12.50;99.90
5392;DHT22;2719;53.624;9.786;2022-11-11T03:13:10;12.50;99.90
5392;DHT22;2719;53.624;9.786;2022-11-11T03:15:37;12.50;99.90
5392;DHT22;2719;53.624;9.786;2022-11-11T03:18:05;12.50;99.90
5392;DHT22;2719;53.624;9.786;2022-11-11T03:20:30;12.50;99.90
5392;DHT22;2719;53.624;9.786;2022-11-11T03:23:15;12.50;99.90
5392;DHT22;2719;53.624;9.786;2022-11-11T03:25:44;12.50;99.90
5392;DHT22;2719;53.624;9.786;2022-11-11T03:28:12;12.50;99.90
5392;DHT22;2719;53.624;9.786;2022-11-11T03:30:40;12.50;99.90
5392;DHT22;2719;53.624;9.786;2022-11-11T03:33:08;12.50;99.90
5392;DHT22;2719;53.624;9.786;2022-11-11T03:35:35;12.50;99.90
5392;DHT22;2719;53.624;9.786;2022-11-11T03:38:03;12.50;99.90
5392;DHT22;2719;53.624;9.786;2022-11-11T03:40:49;12.50;99.90
5392;DHT22;2719;53.624;9.786;2022-11-11T03:43:17;12.50;99.90
5392;DHT22;2719;53.624;9.786;2022-11-11T03:45:44;12.50;99.90
5392;DHT22;2719;53.624;9.786;2022-11-11T03:48:13;12.40;99.90
5392;DHT22;2719;53.624;9.786;2022-11-11T03:50:39;12.30;99.90
5392;DHT22;2719;53.624;9.786;2022-11-11T03:53:06;12.30;99.90
5392;DHT22;2719;53.624;9.786;2022-11-11T03:55:33;12.20;99.90
5392;DHT22;2719;53.624;9.786;2022-11-11T03:58:00;12.20;99.90
5392;DHT22;2719;53.624;9.786;2022-11-11T04:00:27;12.20;99.90
5392;DHT22;2719;53.624;9.786;2022-11-11T04:03:01;12.20;99.90
5392;DHT22;2719;53.624;9.786;2022-11-11T04:05:46;12.30;99.90
5392;DHT22;2719;53.624;9.786;2022-11-11T04:08:30;12.30;99.90
5392;DHT22;2719;53.624;9.786;2022-11-11T04:11:19;12.30;99.90
5392;DHT22;2719;53.624;9.786;2022-11-11T04:13:48;12.20;99.90
5392;DHT22;2719;53.624;9.786;2022-11-11T04:16:32;12.20;99.90
5392;DHT22;2719;53.624;9.786;2022-11-11T04:18:59;12.20;99.90
5392;DHT22;2719;53.624;9.786;2022-11-11T04:21:45;12.20;99.90
5392;DHT22;2719;53.624;9.786;2022-11-11T04:24:13;12.20;99.90
5392;DHT22;2719;53.624;9.786;2022-11-11T04:27:14;12.20;99.90
5392;DHT22;2719;53.624;9.786;2022-11-11T04:29:41;12.10;99.90
5392;DHT22;2719;53.624;9.786;2022-11-11T04:32:09;12.10;99.90
5392;DHT22;2719;53.624;9.786;2022-11-11T04:34:55;12.10;99.90
5392;DHT22;2719;53.624;9.786;2022-11-11T04:37:25;12.10;99.90
5392;DHT22;2719;53.624;9.786;2022-11-11T04:39:52;12.10;99.90
5392;DHT22;2719;53.624;9.786;2022-11-11T04:42:37;12.00;99.90
5392;DHT22;2719;53.624;9.786;2022-11-11T04:45:04;12.00;99.90
5392;DHT22;2719;53.624;9.786;2022-11-11T04:47:53;12.00;99.90
5392;DHT22;2719;53.624;9.786;2022-11-11T04:50:20;12.00;99.90
5392;DHT22;2719;53.624;9.786;2022-11-11T04:52:48;12.00;99.90
5392;DHT22;2719;53.624;9.786;2022-11-11T04:55:15;11.90;99.90
5392;DHT22;2719;53.624;9.786;2022-11-11T04:57:59;11.90;99.90
5392;DHT22;2719;53.624;9.786;2022-11-11T05:00:26;11.90;99.90
5392;DHT22;2719;53.624;9.786;2022-11-11T05:02:53;12.00;99.90
5392;DHT22;2719;53.624;9.786;2022-11-11T05:05:38;11.90;99.90
5392;DHT22;2719;53.624;9.786;2022-11-11T05:08:20;11.80;99.90
5392;DHT22;2719;53.624;9.786;2022-11-11T05:11:10;11.80;99.90
5392;DHT22;2719;53.624;9.786;2022-11-11T05:13:36;11.80;99.90
5392;DHT22;2719;53.624;9.786;2022-11-11T05:16:25;11.70;99.90
5392;DHT22;2719;53.624;9.786;2022-11-11T05:19:10;11.70;99.90
5392;DHT22;2719;53.624;9.786;2022-11-11T05:21:56;11.60;99.90
5392;DHT22;2719;53.624;9.786;2022-11-11T05:24:27;11.60;99.90
5392;DHT22;2719;53.624;9.786;2022-11-11T05:27:12;11.50;99.90
5392;DHT22;2719;53.624;9.786;2022-11-11T05:29:38;11.50;99.90
5392;DHT22;2719;53.624;9.786;2022-11-11T05:32:06;11.50;99.90
5392;DHT22;2719;53.624;9.786;2022-11-11T05:34:33;11.60;99.90
5392;DHT22;2719;53.624;9.786;2022-11-11T05:37:00;11.60;99.90
5392;DHT22;2719;53.624;9.786;2022-11-11T05:39:28;11.60;99.90
5392;DHT22;2719;53.624;9.786;2022-11-11T05:41:55;11.60;99.90
5392;DHT22;2719;53.624;9.786;2022-11-11T05:44:21;11.50;99.90
5392;DHT22;2719;53.624;9.786;2022-11-11T05:46:48;11.50;99.90
5392;DHT22;2719;53.624;9.786;2022-11-11T05:49:14;11.50;99.90
5392;DHT22;2719;53.624;9.786;2022-11-11T05:51:41;11.50;99.90
5392;DHT22;2719;53.624;9.786;2022-11-11T05:54:08;11.50;99.90
5392;DHT22;2719;53.624;9.786;2022-11-11T05:56:36;11.50;99.90
5392;DHT22;2719;53.624;9.786;2022-11-11T05:59:03;11.50;99.90
5392;DHT22;2719;53.624;9.786;2022-11-11T06:01:30;11.50;99.90
5392;DHT22;2719;53.624;9.786;2022-11-11T06:03:57;11.60;99.90
5392;DHT22;2719;53.624;9.786;2022-11-11T06:06:23;11.50;99.90
5392;DHT22;2719;53.624;9.786;2022-11-11T06:08:50;11.40;99.90
5392;DHT22;2719;53.624;9.786;2022-11-11T06:11:17;11.40;99.90
5392;DHT22;2719;53.624;9.786;2022-11-11T06:13:45;11.40;99.90
5392;DHT22;2719;53.624;9.786;2022-11-11T06:16:11;11.40;99.90
5392;DHT22;2719;53.624;9.786;2022-11-11T06:18:38;11.40;99.90
5392;DHT22;2719;53.624;9.786;2022-11-11T06:21:05;11.40;99.90
5392;DHT22;2719;53.624;9.786;2022-11-11T06:23:32;11.40;99.90
5392;DHT22;2719;53.624;9.786;2022-11-11T06:25:58;11.50;99.90
5392;DHT22;2719;53.624;9.786;2022-11-11T06:28:42;11.40;99.90
5392;DHT22;2719;53.624;9.786;2022-11-11T06:31:14;11.50;99.90
5392;DHT22;2719;53.624;9.786;2022-11-11T06:33:41;11.40;99.90
5392;DHT22;2719;53.624;9.786;2022-11-11T06:36:09;11.40;99.90
5392;DHT22;2719;53.624;9.786;2022-11-11T06:38:35;11.40;99.90
5392;DHT22;2719;53.624;9.786;2022-11-11T06:41:02;11.40;99.90
5392;DHT22;2719;53.624;9.786;2022-11-11T06:43:29;11.40;99.90
5392;DHT22;2719;53.624;9.786;2022-11-11T06:45:56;11.40;99.90
5392;DHT22;2719;53.624;9.786;2022-11-11T06:48:25;11.30;99.90
5392;DHT22;2719;53.624;9.786;2022-11-11T06:50:52;11.40;99.90
5392;DHT22;2719;53.624;9.786;2022-11-11T06:53:20;11.40;99.90
5392;DHT22;2719;53.624;9.786;2022-11-11T06:55:47;11.40;99.90
5392;DHT22;2719;53.624;9.786;2022-11-11T06:58:18;11.30;99.90
5392;DHT22;2719;53.624;9.786;2022-11-11T07:00:46;11.30;99.90
5392;DHT22;2719;53.624;9.786;2022-11-11T07:03:15;11.30;99.90
5392;DHT22;2719;53.624;9.786;2022-11-11T07:05:45;11.30;99.90
5392;DHT22;2719;53.624;9.786;2022-11-11T07:08:13;11.20;99.90
5392;DHT22;2719;53.624;9.786;2022-11-11T07:10:43;11.30;99.90
5392;DHT22;2719;53.624;9.786;2022-11-11T07:13:11;11.20;99.90
5392;DHT22;2719;53.624;9.786;2022-11-11T07:15:38;11.20;99.90
5392;DHT22;2719;53.624;9.786;2022-11-11T07:18:04;11.20;99.90
5392;DHT22;2719;53.624;9.786;2022-11-11T07:22:59;11.20;99.90
5392;DHT22;2719;53.624;9.786;2022-11-11T07:25:26;11.30;99.90
5392;DHT22;2719;53.624;9.786;2022-11-11T07:27:53;11.30;99.90
5392;DHT22;2719;53.624;9.786;2022-11-11T07:30:19;11.30;99.90
5392;DHT22;2719;53.624;9.786;2022-11-11T07:32:47;11.30;99.90
5392;DHT22;2719;53.624;9.786;2022-11-11T07:35:15;11.30;99.90
5392;DHT22;2719;53.624;9.786;2022-11-11T07:37:42;11.30;99.90
5392;DHT22;2719;53.624;9.786;2022-11-11T07:40:12;11.30;99.90
5392;DHT22;2719;53.624;9.786;2022-11-11T07:42:40;11.30;99.90
5392;DHT22;2719;53.624;9.786;2022-11-11T07:45:08;11.30;99.90
5392;DHT22;2719;53.624;9.786;2022-11-11T07:47:36;11.30;99.90
5392;DHT22;2719;53.624;9.786;2022-11-11T07:50:04;11.30;99.90
5392;DHT22;2719;53.624;9.786;2022-11-11T07:52:32;11.20;99.90
5392;DHT22;2719;53.624;9.786;2022-11-11T07:54:58;11.20;99.90
5392;DHT22;2719;53.624;9.786;2022-11-11T07:57:26;11.30;99.90
5392;DHT22;2719;53.624;9.786;2022-11-11T07:59:53;11.30;99.90
5392;DHT22;2719;53.624;9.786;2022-11-11T08:02:20;11.30;99.90
5392;DHT22;2719;53.624;9.786;2022-11-11T08:04:46;11.30;99.90
5392;DHT22;2719;53.624;9.786;2022-11-11T08:07:13;11.20;99.90
5392;DHT22;2719;53.624;9.786;2022-11-11T08:09:40;11.30;99.90
5392;DHT22;2719;53.624;9.786;2022-11-11T08:12:08;11.30;99.90
5392;DHT22;2719;53.624;9.786;2022-11-11T08:14:53;11.30;99.90
5392;DHT22;2719;53.624;9.786;2022-11-11T08:17:20;11.40;99.90
5392;DHT22;2719;53.624;9.786;2022-11-11T08:19:47;11.40;99.90
5392;DHT22;2719;53.624;9.786;2022-11-11T08:22:13;11.30;99.90
5392;DHT22;2719;53.624;9.786;2022-11-11T08:24:40;11.30;99.90
5392;DHT22;2719;53.624;9.786;2022-11-11T08:27:07;11.20;99.90
5392;DHT22;2719;53.624;9.786;2022-11-11T08:29:34;11.20;99.90
5392;DHT22;2719;53.624;9.786;2022-11-11T08:32:02;11.20;99.90
5392;DHT22;2719;53.624;9.786;2022-11-11T08:34:29;11.20;99.90
5392;DHT22;2719;53.624;9.786;2022-11-11T08:36:56;11.20;99.90
5392;DHT22;2719;53.624;9.786;2022-11-11T08:39:23;11.20;99.90
5392;DHT22;2719;53.624;9.786;2022-11-11T08:41:49;11.20;99.90
5392;DHT22;2719;53.624;9.786;2022-11-11T08:44:16;11.20;99.90
5392;DHT22;2719;53.624;9.786;2022-11-11T08:46:43;11.20;99.90
5392;DHT22;2719;53.624;9.786;2022-11-11T08:49:11;11.20;99.90
5392;DHT22;2719;53.624;9.786;2022-11-11T08:51:38;11.30;99.90
5392;DHT22;2719;53.624;9.786;2022-11-11T08:54:04;11.30;99.90
5392;DHT22;2719;53.624;9.786;2022-11-11T08:56:31;11.30;99.90
5392;DHT22;2719;53.624;9.786;2022-11-11T08:58:58;11.30;99.90
5392;DHT22;2719;53.624;9.786;2022-11-11T09:01:25;11.20;99.90
5392;DHT22;2719;53.624;9.786;2022-11-11T09:03:51;11.30;99.90
5392;DHT22;2719;53.624;9.786;2022-11-11T09:06:19;11.30;99.90
5392;DHT22;2719;53.624;9.786;2022-11-11T09:08:46;11.30;99.90
5392;DHT22;2719;53.624;9.786;2022-11-11T09:11:13;11.30;99.90
5392;DHT22;2719;53.624;9.786;2022-11-11T09:13:39;11.30;99.90
5392;DHT22;2719;53.624;9.786;2022-11-11T09:16:07;11.30;99.90
5392;DHT22;2719;53.624;9.786;2022-11-11T09:18:34;11.40;99.90
5392;DHT22;2719;53.624;9.786;2022-11-11T09:21:02;11.40;99.90
5392;DHT22;2719;53.624;9.786;2022-11-11T09:23:30;11.30;99.90
5392;DHT22;2719;53.624;9.786;2022-11-11T09:25:59;11.40;99.90
5392;DHT22;2719;53.624;9.786;2022-11-11T09:28:28;11.40;99.90
5392;DHT22;2719;53.624;9.786;2022-11-11T09:30:57;11.40;99.90
5392;DHT22;2719;53.624;9.786;2022-11-11T09:33:24;11.40;99.90
5392;DHT22;2719;53.624;9.786;2022-11-11T09:35:51;11.40;99.90
5392;DHT22;2719;53.624;9.786;2022-11-11T09:38:17;11.40;99.90
5392;DHT22;2719;53.624;9.786;2022-11-11T09:40:53;11.40;99.90
5392;DHT22;2719;53.624;9.786;2022-11-11T09:43:33;11.40;99.90
5392;DHT22;2719;53.624;9.786;2022-11-11T09:46:12;11.50;99.90
5392;DHT22;2719;53.624;9.786;2022-11-11T09:48:50;11.50;99.90
5392;DHT22;2719;53.624;9.786;2022-11-11T09:51:22;11.50;99.90
5392;DHT22;2719;53.624;9.786;2022-11-11T09:53:53;11.50;99.90
5392;DHT22;2719;53.624;9.786;2022-11-11T09:56:23;11.60;99.90
5392;DHT22;2719;53.624;9.786;2022-11-11T09:58:52;11.50;99.90
5392;DHT22;2719;53.624;9.786;2022-11-11T10:01:25;11.60;99.90
5392;DHT22;2719;53.624;9.786;2022-11-11T10:03:57;11.60;99.90
5392;DHT22;2719;53.624;9.786;2022-11-11T10:06:27;11.60;99.90
5392;DHT22;2719;53.624;9.786;2022-11-11T10:08:57;11.70;99.90
5392;DHT22;2719;53.624;9.786;2022-11-11T10:11:38;11.70;99.90
5392;DHT22;2719;53.624;9.786;2022-11-11T10:14:08;11.80;99.90
5392;DHT22;2719;53.624;9.786;2022-11-11T10:16:45;11.80;99.90
5392;DHT22;2719;53.624;9.786;2022-11-11T10:19:22;11.80;99.90
5392;DHT22;2719;53.624;9.786;2022-11-11T10:21:53;11.80;99.90
5392;DHT22;2719;53.624;9.786;2022-11-11T10:24:27;11.90;99.90
5392;DHT22;2719;53.624;9.786;2022-11-11T10:26:59;11.90;99.90
5392;DHT22;2719;53.624;9.786;2022-11-11T10:29:30;11.90;99.90
5392;DHT22;2719;53.624;9.786;2022-11-11T10:32:02;11.90;99.90
5392;DHT22;2719;53.624;9.786;2022-11-11T10:34:32;11.90;99.90
5392;DHT22;2719;53.624;9.786;2022-11-11T10:37:00;11.90;99.90
5392;DHT22;2719;53.624;9.786;2022-11-11T10:39:47;12.00;99.90
5392;DHT22;2719;53.624;9.786;2022-11-11T10:42:17;12.00;99.90
5392;DHT22;2719;53.624;9.786;2022-11-11T10:44:44;12.00;99.90
5392;DHT22;2719;53.624;9.786;2022-11-11T10:47:16;12.00;99.90
5392;DHT22;2719;53.624;9.786;2022-11-11T10:49:51;12.00;99.90
5392;DHT22;2719;53.624;9.786;2022-11-11T10:52:21;12.00;99.90
5392;DHT22;2719;53.624;9.786;2022-11-11T10:54:54;12.10;99.90
5392;DHT22;2719;53.624;9.786;2022-11-11T10:57:30;12.10;99.90
5392;DHT22;2719;53.624;9.786;2022-11-11T11:00:02;12.10;99.90
5392;DHT22;2719;53.624;9.786;2022-11-11T11:02:38;12.10;99.90
5392;DHT22;2719;53.624;9.786;2022-11-11T11:05:10;12.10;99.90
5392;DHT22;2719;53.624;9.786;2022-11-11T11:07:42;12.00;99.90
5392;DHT22;2719;53.624;9.786;2022-11-11T11:10:13;12.10;99.90
5392;DHT22;2719;53.624;9.786;2022-11-11T11:12:48;12.10;99.90
5392;DHT22;2719;53.624;9.786;2022-11-11T11:15:20;12.20;99.90
5392;DHT22;2719;53.624;9.786;2022-11-11T11:17:52;12.20;99.90
5392;DHT22;2719;53.624;9.786;2022-11-11T11:20:20;12.30;99.90
5392;DHT22;2719;53.624;9.786;2022-11-11T11:22:50;12.30;99.90
5392;DHT22;2719;53.624;9.786;2022-11-11T11:25:18;12.20;99.90
5392;DHT22;2719;53.624;9.786;2022-11-11T11:27:46;12.20;99.90
5392;DHT22;2719;53.624;9.786;2022-11-11T11:30:17;12.20;99.90
5392;DHT22;2719;53.624;9.786;2022-11-11T11:32:56;12.20;99.90
5392;DHT22;2719;53.624;9.786;2022-11-11T11:35:32;12.20;99.90
5392;DHT22;2719;53.624;9.786;2022-11-11T11:37:59;12.20;99.90
5392;DHT22;2719;53.624;9.786;2022-11-11T11:40:26;12.20;99.90
5392;DHT22;2719;53.624;9.786;2022-11-11T11:42:54;12.30;99.90
5392;DHT22;2719;53.624;9.786;2022-11-11T11:45:23;12.20;99.90
5392;DHT22;2719;53.624;9.786;2022-11-11T11:48:04;12.10;99.90
5392;DHT22;2719;53.624;9.786;2022-11-11T11:50:40;12.20;99.90
5392;DHT22;2719;53.624;9.786;2022-11-11T11:53:21;12.20;99.90
5392;DHT22;2719;53.624;9.786;2022-11-11T11:55:54;12.20;99.90
5392;DHT22;2719;53.624;9.786;2022-11-11T11:58:32;12.20;99.90
5392;DHT22;2719;53.624;9.786;2022-11-11T12:01:04;12.20;99.90
5392;DHT22;2719;53.624;9.786;2022-11-11T12:04:01;12.30;99.90
5392;DHT22;2719;53.624;9.786;2022-11-11T12:06:41;12.20;99.90
5392;DHT22;2719;53.624;9.786;2022-11-11T12:09:19;12.20;99.90
5392;DHT22;2719;53.624;9.786;2022-11-11T12:11:53;12.30;99.90
5392;DHT22;2719;53.624;9.786;2022-11-11T12:14:45;12.30;99.90
5392;DHT22;2719;53.624;9.786;2022-11-11T12:17:28;12.30;99.90
5392;DHT22;2719;53.624;9.786;2022-11-11T12:20:02;12.30;99.90
5392;DHT22;2719;53.624;9.786;2022-11-11T12:22:39;12.30;99.90
5392;DHT22;2719;53.624;9.786;2022-11-11T12:25:16;12.20;99.90
5392;DHT22;2719;53.624;9.786;2022-11-11T12:27:51;12.30;99.90
5392;DHT22;2719;53.624;9.786;2022-11-11T12:30:23;12.30;99.90
5392;DHT22;2719;53.624;9.786;2022-11-11T12:33:21;12.30;99.90
5392;DHT22;2719;53.624;9.786;2022-11-11T12:36:04;12.30;99.90
5392;DHT22;2719;53.624;9.786;2022-11-11T12:38:48;12.20;99.90
5392;DHT22;2719;53.624;9.786;2022-11-11T12:41:23;12.20;99.90
5392;DHT22;2719;53.624;9.786;2022-11-11T12:43:56;12.10;99.90
5392;DHT22;2719;53.624;9.786;2022-11-11T12:46:36;12.10;99.90
5392;DHT22;2719;53.624;9.786;2022-11-11T12:49:15;12.10;99.90
5392;DHT22;2719;53.624;9.786;2022-11-11T12:51:54;12.10;99.90
5392;DHT22;2719;53.624;9.786;2022-11-11T12:54:31;12.10;99.90
5392;DHT22;2719;53.624;9.786;2022-11-11T12:57:03;12.10;99.90
5392;DHT22;2719;53.624;9.786;2022-11-11T12:59:53;12.10;99.90
5392;DHT22;2719;53.624;9.786;2022-11-11T13:02:48;12.10;99.90
5392;DHT22;2719;53.624;9.786;2022-11-11T13:05:20;12.10;99.90
5392;DHT22;2719;53.624;9.786;2022-11-11T13:08:37;12.10;99.90
5392;DHT22;2719;53.624;9.786;2022-11-11T13:11:11;12.00;99.90
5392;DHT22;2719;53.624;9.786;2022-11-11T13:13:53;12.00;99.90
5392;DHT22;2719;53.624;9.786;2022-11-11T13:16:23;12.00;99.90
5392;DHT22;2719;53.624;9.786;2022-11-11T13:18:56;12.10;99.90
5392;DHT22;2719;53.624;9.786;2022-11-11T13:21:30;12.10;99.90
5392;DHT22;2719;53.624;9.786;2022-11-11T13:23:57;12.10;99.90
5392;DHT22;2719;53.624;9.786;2022-11-11T13:26:30;12.10;99.90
5392;DHT22;2719;53.624;9.786;2022-11-11T13:29:13;12.10;99.90
5392;DHT22;2719;53.624;9.786;2022-11-11T13:31:44;12.10;99.90
5392;DHT22;2719;53.624;9.786;2022-11-11T13:34:13;12.00;99.90
5392;DHT22;2719;53.624;9.786;2022-11-11T13:36:45;12.10;99.90
5392;DHT22;2719;53.624;9.786;2022-11-11T13:39:24;12.00;99.90
5392;DHT22;2719;53.624;9.786;2022-11-11T13:41:52;12.00;99.90
5392;DHT22;2719;53.624;9.786;2022-11-11T13:44:23;12.00;99.90
5392;DHT22;2719;53.624;9.786;2022-11-11T13:46:51;12.00;99.90
5392;DHT22;2719;53.624;9.786;2022-11-11T13:49:29;12.00;99.90
5392;DHT22;2719;53.624;9.786;2022-11-11T13:51:59;12.00;99.90
5392;DHT22;2719;53.624;9.786;2022-11-11T13:54:29;12.10;99.90
5392;DHT22;2719;53.624;9.786;2022-11-11T13:57:02;12.10;99.90
5392;DHT22;2719;53.624;9.786;2022-11-11T13:59:33;12.10;99.90
5392;DHT22;2719;53.624;9.786;2022-11-11T14:02:26;12.20;99.90
5392;DHT22;2719;53.624;9.786;2022-11-11T14:05:19;12.10;99.90
5392;DHT22;2719;53.624;9.786;2022-11-11T14:07:51;12.10;99.90
5392;DHT22;2719;53.624;9.786;2022-11-11T14:10:43;12.10;99.90
5392;DHT22;2719;53.624;9.786;2022-11-11T14:13:39;12.10;99.90
5392;DHT22;2719;53.624;9.786;2022-11-11T14:16:10;12.10;99.90
5392;DHT22;2719;53.624;9.786;2022-11-11T14:18:43;12.10;99.90
5392;DHT22;2719;53.624;9.786;2022-11-11T14:21:41;12.20;99.90
5392;DHT22;2719;53.624;9.786;2022-11-11T14:24:08;12.20;99.90
5392;DHT22;2719;53.624;9.786;2022-11-11T14:26:36;12.20;99.90
5392;DHT22;2719;53.624;9.786;2022-11-11T14:29:03;12.20;99.90
5392;DHT22;2719;53.624;9.786;2022-11-11T14:31:59;12.20;99.90
5392;DHT22;2719;53.624;9.786;2022-11-11T14:34:43;12.20;99.90
5392;DHT22;2719;53.624;9.786;2022-11-11T14:37:24;12.20;99.90
5392;DHT22;2719;53.624;9.786;2022-11-11T14:39:55;12.10;99.90
5392;DHT22;2719;53.624;9.786;2022-11-11T14:42:42;12.10;99.90
5392;DHT22;2719;53.624;9.786;2022-11-11T14:48:53;12.20;99.90
5392;DHT22;2719;53.624;9.786;2022-11-11T14:51:52;12.20;99.90
5392;DHT22;2719;53.624;9.786;2022-11-11T14:54:41;12.20;99.90
5392;DHT22;2719;53.624;9.786;2022-11-11T14:57:18;12.10;99.90
5392;DHT22;2719;53.624;9.786;2022-11-11T14:59:46;12.20;99.90
5392;DHT22;2719;53.624;9.786;2022-11-11T15:02:29;12.20;99.90
5392;DHT22;2719;53.624;9.786;2022-11-11T15:04:58;12.20;99.90
5392;DHT22;2719;53.624;9.786;2022-11-11T15:07:32;12.20;99.90
5392;DHT22;2719;53.624;9.786;2022-11-11T15:10:34;12.20;99.90
5392;DHT22;2719;53.624;9.786;2022-11-11T15:13:27;12.20;99.90
5392;DHT22;2719;53.624;9.786;2022-11-11T15:16:06;12.30;99.90
5392;DHT22;2719;53.624;9.786;2022-11-11T15:18:50;12.30;99.90
5392;DHT22;2719;53.624;9.786;2022-11-11T15:21:23;12.30;99.90
5392;DHT22;2719;53.624;9.786;2022-11-11T15:24:02;12.30;99.90
5392;DHT22;2719;53.624;9.786;2022-11-11T15:26:37;12.30;99.90
5392;DHT22;2719;53.624;9.786;2022-11-11T15:32:19;12.40;99.90
5392;DHT22;2719;53.624;9.786;2022-11-11T15:34:53;12.40;99.90
5392;DHT22;2719;53.624;9.786;2022-11-11T15:37:22;12.40;99.90
5392;DHT22;2719;53.624;9.786;2022-11-11T15:39:53;12.50;99.90
5392;DHT22;2719;53.624;9.786;2022-11-11T15:42:27;12.50;99.90
5392;DHT22;2719;53.624;9.786;2022-11-11T15:44:55;12.50;99.90
5392;DHT22;2719;53.624;9.786;2022-11-11T15:47:24;12.50;99.90
5392;DHT22;2719;53.624;9.786;2022-11-11T15:49:52;12.50;99.90
5392;DHT22;2719;53.624;9.786;2022-11-11T15:52:25;12.50;99.90
5392;DHT22;2719;53.624;9.786;2022-11-11T15:54:53;12.60;99.90
5392;DHT22;2719;53.624;9.786;2022-11-11T15:57:31;12.60;99.90
5392;DHT22;2719;53.624;9.786;2022-11-11T16:00:03;12.60;99.90
5392;DHT22;2719;53.624;9.786;2022-11-11T16:02:44;12.60;99.90
5392;DHT22;2719;53.624;9.786;2022-11-11T16:05:15;12.60;99.90
5392;DHT22;2719;53.624;9.786;2022-11-11T16:07:46;12.60;99.90
5392;DHT22;2719;53.624;9.786;2022-11-11T16:10:15;12.70;99.90
5392;DHT22;2719;53.624;9.786;2022-11-11T16:12:47;12.70;99.90
5392;DHT22;2719;53.624;9.786;2022-11-11T16:15:20;12.70;99.90
5392;DHT22;2719;53.624;9.786;2022-11-11T16:17:47;12.70;99.90
5392;DHT22;2719;53.624;9.786;2022-11-11T16:20:15;12.70;99.90
5392;DHT22;2719;53.624;9.786;2022-11-11T16:22:46;12.70;99.90
5392;DHT22;2719;53.624;9.786;2022-11-11T16:25:18;12.60;99.90
5392;DHT22;2719;53.624;9.786;2022-11-11T16:27:46;12.70;99.90
5392;DHT22;2719;53.624;9.786;2022-11-11T16:30:15;12.70;99.90
5392;DHT22;2719;53.624;9.786;2022-11-11T16:32:43;12.70;99.90
5392;DHT22;2719;53.624;9.786;2022-11-11T16:35:24;12.70;99.90
5392;DHT22;2719;53.624;9.786;2022-11-11T16:37:53;12.70;99.90
5392;DHT22;2719;53.624;9.786;2022-11-11T16:40:32;12.80;99.90
5392;DHT22;2719;53.624;9.786;2022-11-11T16:43:17;12.80;99.90
5392;DHT22;2719;53.624;9.786;2022-11-11T16:45:49;12.80;99.90